createdAt,value
2018-08-27T00:03:33.659Z,79.7
2018-08-27T00:13:47.673Z,83.4
2018-08-27T00:24:02.754Z,85.1
2018-08-27T00:34:18.401Z,85.1
2018-08-27T00:44:32.437Z,83.3
2018-08-27T00:54:47.981Z,83.8
2018-08-27T01:05:02.712Z,83.3
2018-08-27T01:15:16.866Z,84.2
2018-08-27T01:25:32.084Z,83.2
2018-08-27T01:35:46.774Z,83.8
2018-08-27T01:46:02.066Z,83.8
2018-08-27T01:56:16.229Z,83.9
2018-08-27T02:06:31.330Z,83.5
2018-08-27T02:16:46.840Z,81
2018-08-27T02:27:01.953Z,77.9
2018-08-27T02:37:16.436Z,75
2018-08-27T02:47:31.029Z,74.2
2018-08-27T02:57:44.766Z,54.1
2018-08-27T03:07:59.157Z,29
2018-08-27T03:18:14.047Z,15.5
2018-08-27T03:28:29.229Z,14.5
2018-08-27T03:38:44.785Z,20.4
2018-08-27T03:48:58.576Z,26.1
2018-08-27T03:59:12.804Z,25.3
2018-08-27T04:09:26.967Z,23.1
2018-08-27T04:19:42.505Z,24.4
2018-08-27T04:29:56.826Z,23
2018-08-27T04:40:10.767Z,11.2
2018-08-27T04:50:24.639Z,3.5
2018-08-27T05:00:38.961Z,0.1
2018-08-27T05:10:53.401Z,0
2018-08-27T05:21:09.104Z,0
2018-08-27T05:31:24.383Z,0
2018-08-27T05:41:39.879Z,0
2018-08-27T05:51:55.495Z,0
2018-08-27T06:02:10.927Z,0
2018-08-27T06:12:25.474Z,0
2018-08-27T06:22:40.624Z,0
2018-08-27T06:32:56.165Z,0
2018-08-27T06:43:11.722Z,0
2018-08-27T06:53:25.957Z,0
2018-08-27T07:03:41.400Z,0
2018-08-27T07:13:55.475Z,0
2018-08-27T07:24:09.817Z,0
2018-08-27T07:34:26.136Z,0
2018-08-27T07:44:39.485Z,0
2018-08-27T07:54:55.253Z,0
2018-08-27T08:05:09.052Z,0
2018-08-27T08:15:22.916Z,0
2018-08-27T08:25:37.288Z,0
2018-08-27T08:35:52.733Z,0
2018-08-27T08:46:08.072Z,0
2018-08-27T08:56:23.543Z,0
2018-08-27T09:06:38.600Z,0
2018-08-27T09:16:52.526Z,0
2018-08-27T09:27:08.093Z,0
2018-08-27T09:37:21.972Z,0
2018-08-27T09:47:37.692Z,0
2018-08-27T09:57:53.224Z,0
2018-08-27T10:08:08.582Z,0
2018-08-27T10:18:24.354Z,0
2018-08-27T10:28:38.479Z,2.2
2018-08-27T10:38:53.276Z,4
2018-08-27T10:49:07.925Z,7.2
2018-08-27T10:59:21.687Z,13.8
2018-08-27T11:09:36.598Z,15.4
2018-08-27T11:19:51.241Z,21.9
2018-08-27T11:30:06.336Z,45.3
2018-08-27T11:40:22.287Z,49
2018-08-27T11:50:37.567Z,49
2018-08-27T12:00:52.032Z,46.2
2018-08-27T12:11:06.464Z,58.7
2018-08-27T12:21:21.306Z,80.3
2018-08-27T12:31:36.421Z,94.2
2018-08-27T12:41:52.334Z,99.6
2018-08-27T12:52:07.295Z,98.5
2018-08-27T13:02:22.202Z,96.8
2018-08-27T13:12:37.475Z,94.6
2018-08-27T13:22:52.024Z,96.8
2018-08-27T13:33:07.762Z,94.4
2018-08-27T13:43:22.595Z,93.3
2018-08-27T13:53:38.403Z,95.7
2018-08-27T14:03:52.950Z,94.8
2018-08-27T14:14:07.420Z,93.4
2018-08-27T14:24:22.956Z,92.8
2018-08-27T14:34:36.973Z,92.9
2018-08-27T14:44:51.854Z,93.5
2018-08-27T14:55:07.408Z,93.7
2018-08-27T15:05:22.281Z,92.2
2018-08-27T15:15:37.280Z,91.2
2018-08-27T15:25:52.319Z,90.6
2018-08-27T15:36:07.504Z,90.6
2018-08-27T15:46:22.792Z,91.4
2018-08-27T15:56:37.580Z,91.2
2018-08-27T16:06:52.494Z,91.4
2018-08-27T16:17:07.396Z,90.6
2018-08-27T16:27:22.409Z,90.7
2018-08-27T16:37:36.652Z,90
2018-08-27T16:47:50.469Z,90.2
2018-08-27T16:58:05.374Z,91.2
2018-08-27T17:08:21.065Z,89.8
2018-08-27T17:18:36.545Z,90.2
2018-08-27T17:28:52.228Z,90.7
2018-08-27T17:39:07.194Z,89.5
2018-08-27T17:49:21.183Z,88.6
2018-08-27T17:59:35.101Z,87.3
2018-08-27T18:09:49.232Z,87
2018-08-27T18:20:04.976Z,85.6
2018-08-27T18:30:19.724Z,83.8
2018-08-27T18:40:34.628Z,80.8
2018-08-27T18:50:48.590Z,77.5
2018-08-27T19:01:03.448Z,76.5
2018-08-27T19:11:17.768Z,74.3
2018-08-27T19:21:33.327Z,72.7
2018-08-27T19:31:48.011Z,70.2
2018-08-27T19:42:03.437Z,67.8
2018-08-27T19:52:17.874Z,67.6
2018-08-27T20:02:32.639Z,69.7
2018-08-27T20:12:46.583Z,68.8
2018-08-27T20:23:01.888Z,67.4
2018-08-27T20:33:16.798Z,67.6
2018-08-27T20:43:32.000Z,68.4
2018-08-27T20:53:46.325Z,65.5
2018-08-27T21:04:00.749Z,64.3
2018-08-27T21:14:16.021Z,63.5
2018-08-27T21:24:29.833Z,61.5
2018-08-27T21:34:43.937Z,63
2018-08-27T21:44:57.927Z,63
2018-08-27T21:55:13.528Z,60.5
2018-08-27T22:05:29.066Z,60
2018-08-27T22:15:43.815Z,60.2
2018-08-27T22:25:58.570Z,59.3
2018-08-27T22:36:13.793Z,58.7
2018-08-27T22:46:27.838Z,57.6
2018-08-27T22:56:43.233Z,55
2018-08-27T23:06:57.862Z,54.7
2018-08-27T23:17:13.531Z,55.8
2018-08-27T23:27:27.871Z,57.5
2018-08-27T23:37:42.843Z,58.2
2018-08-27T23:47:58.535Z,57.1
2018-08-27T23:58:14.018Z,55.6
